Time;durP1;ratioP1;P1;durP2;ratioP2;P2;SDS_P1;SDS_P2;PMS_P1;PMS_P2;Temp;Humidity;BMP_temperature;BMP_pressure;BME280_temperature;BME280_humidity;BME280_pressure;Samples;Min_cycle;Max_cycle;Signal;HPM_P1;HPM_P2
2023/12/01 00:00:00;;;;;;;14.33;9.17;;;;;;;-2.10;100.00;101522.09;5067163;28;20178;-69
2023/12/01 00:02:26;;;;;;;13.90;10.47;;;;;;;-1.64;100.00;101603.22;5049231;28;20614;-69
2023/12/01 00:04:52;;;;;;;15.40;10.47;;;;;;;-1.33;100.00;101638.03;5069179;28;20193;-70
2023/12/01 00:07:17;;;;;;;13.70;10.67;;;;;;;-1.62;100.00;101598.72;5066736;28;20696;-70
2023/12/01 00:09:43;;;;;;;14.70;10.53;;;;;;;-1.37;100.00;101613.69;5068584;28;20468;-70
2023/12/01 00:12:09;;;;;;;13.77;10.27;;;;;;;-1.74;100.00;101570.56;5067275;28;20198;-70
2023/12/01 00:14:34;;;;;;;13.30;9.73;;;;;;;-1.64;100.00;101607.66;5065377;28;20718;-70
2023/12/01 00:17:00;;;;;;;13.53;9.53;;;;;;;-2.10;100.00;101568.56;5068051;28;20206;-70
2023/12/01 00:19:26;;;;;;;13.60;10.10;;;;;;;-1.56;100.00;101615.00;5047169;28;20187;-69
2023/12/01 00:21:51;;;;;;;13.73;10.67;;;;;;;-1.58;100.00;101625.66;5064916;28;20535;-70
2023/12/01 00:24:17;;;;;;;13.33;10.07;;;;;;;-1.88;100.00;101555.72;5049635;28;20192;-70
2023/12/01 00:26:45;;;;;;;13.70;10.27;;;;;;;-1.74;100.00;101574.97;5065096;28;20305;-70
2023/12/01 00:29:11;;;;;;;15.10;11.67;;;;;;;-1.87;100.00;101548.66;5068092;28;20209;-70
2023/12/01 00:31:36;;;;;;;13.20;9.60;;;;;;;-1.76;100.00;101597.94;5067579;28;20437;-72
2023/12/01 00:34:01;;;;;;;14.67;10.47;;;;;;;-1.70;100.00;101601.00;5048095;28;20191;-69
2023/12/01 00:36:27;;;;;;;14.70;10.40;;;;;;;-1.79;100.00;101596.34;5080050;28;20179;-70
2023/12/01 00:38:52;;;;;;;12.90;9.40;;;;;;;-1.98;100.00;101540.63;5090236;28;20167;-70
2023/12/01 00:41:19;;;;;;;12.97;10.03;;;;;;;-2.15;100.00;101524.16;5070304;28;20175;-70
2023/12/01 00:43:44;;;;;;;15.03;10.93;;;;;;;-1.72;100.00;101591.50;5065651;28;20527;-70
2023/12/01 00:46:10;;;;;;;14.63;10.37;;;;;;;-2.00;100.00;101595.09;5067508;28;20888;-70
2023/12/01 00:48:36;;;;;;;13.87;10.70;;;;;;;-2.32;100.00;101543.63;5051458;28;20207;-70
2023/12/01 00:51:02;;;;;;;13.20;10.60;;;;;;;-1.97;100.00;101584.38;5049760;28;20179;-70
2023/12/01 00:53:29;;;;;;;13.17;10.30;;;;;;;-2.18;100.00;101563.78;5069320;28;20183;-70
2023/12/01 00:55:54;;;;;;;15.37;11.43;;;;;;;-1.87;100.00;101585.47;5069957;28;20439;-70
2023/12/01 00:58:20;;;;;;;15.90;11.80;;;;;;;-2.88;100.00;101450.09;5069550;28;20828;-70
2023/12/01 01:00:45;;;;;;;14.87;10.30;;;;;;;-3.26;100.00;101378.06;5069246;28;20556;-69
2023/12/01 01:03:11;;;;;;;13.50;10.17;;;;;;;-2.16;100.00;101569.78;5068833;28;20181;-70
2023/12/01 01:05:37;;;;;;;14.17;10.97;;;;;;;-2.15;100.00;101587.25;5068111;28;20175;-70
2023/12/01 01:08:02;;;;;;;13.40;10.40;;;;;;;-2.45;100.00;101516.47;5051115;28;20642;-70
2023/12/01 01:10:28;;;;;;;13.30;10.10;;;;;;;-2.10;100.00;101592.22;5067390;28;20216;-70
2023/12/01 01:12:53;;;;;;;14.83;11.10;;;;;;;-2.19;100.00;101591.03;5072353;28;20186;-70
2023/12/01 01:15:18;;;;;;;15.37;11.40;;;;;;;-2.70;100.00;101490.91;5069036;28;20183;-70
2023/12/01 01:17:44;;;;;;;14.77;11.53;;;;;;;-2.80;100.00;101456.53;5051026;28;20207;-70
2023/12/01 01:20:10;;;;;;;17.97;13.40;;;;;;;-3.11;100.00;101412.16;5069622;28;20187;-70
2023/12/01 01:22:37;;;;;;;18.10;14.57;;;;;;;-2.02;100.00;101605.72;5050426;28;20179;-70
2023/12/01 01:25:04;;;;;;;18.43;14.73;;;;;;;-2.42;100.00;101579.34;5067224;28;20515;-70
2023/12/01 01:27:31;;;;;;;19.57;14.47;;;;;;;-2.58;100.00;101553.19;5068465;28;20945;-70
2023/12/01 01:29:56;;;;;;;20.30;15.47;;;;;;;-2.37;100.00;101608.81;5047291;28;20535;-70
2023/12/01 01:32:22;;;;;;;21.87;15.97;;;;;;;-2.75;100.00;101550.75;5067480;28;20444;-70
2023/12/01 01:34:47;;;;;;;22.00;17.27;;;;;;;-2.38;100.00;101608.88;5066701;28;20270;-70
2023/12/01 01:37:13;;;;;;;22.50;18.87;;;;;;;-2.89;100.00;101541.13;5069507;28;20336;-70
2023/12/01 01:39:38;;;;;;;24.17;18.87;;;;;;;-3.50;100.00;101418.94;5069324;28;20271;-70
2023/12/01 01:42:04;;;;;;;20.10;16.83;;;;;;;-2.85;100.00;101552.28;5063445;28;20752;-70
2023/12/01 01:44:29;;;;;;;21.10;17.13;;;;;;;-2.41;100.00;101620.44;5069283;28;20183;-69
2023/12/01 01:46:55;;;;;;;19.60;16.57;;;;;;;-3.07;100.00;101493.22;5067712;28;20198;-70
2023/12/01 01:49:25;;;;;;;16.73;13.70;;;;;;;-2.75;100.00;101570.00;5064851;28;20207;-70
2023/12/01 01:51:52;;;;;;;16.23;13.57;;;;;;;-2.59;100.00;101601.41;5044384;28;20179;-70
2023/12/01 01:54:22;;;;;;;15.73;14.00;;;;;;;-2.57;100.00;101598.69;5045624;28;20444;-70
2023/12/01 01:56:48;;;;;;;14.93;12.80;;;;;;;-3.00;100.00;101546.19;5066834;28;20449;-69
2023/12/01 01:59:13;;;;;;;15.17;13.57;;;;;;;-3.53;100.00;101437.47;5065970;28;20429;-70
2023/12/01 02:01:39;;;;;;;15.60;13.20;;;;;;;-3.36;100.00;101466.13;5065232;28;20451;-69
2023/12/01 02:04:07;;;;;;;14.40;12.80;;;;;;;-2.64;100.00;101586.88;5049667;28;20199;-70
2023/12/01 02:06:33;;;;;;;15.17;13.57;;;;;;;-2.99;100.00;101548.72;5057759;28;20171;-70
2023/12/01 02:08:59;;;;;;;16.40;14.07;;;;;;;-3.12;100.00;101524.16;5066931;28;20552;-70
2023/12/01 02:11:25;;;;;;;15.30;13.70;;;;;;;-2.82;100.00;101559.97;5049294;28;20831;-70
2023/12/01 02:13:54;;;;;;;15.10;13.30;;;;;;;-2.61;100.00;101607.69;5066725;28;20464;-69
2023/12/01 02:16:19;;;;;;;15.80;14.20;;;;;;;-3.38;100.00;101490.78;5064656;28;20775;-69
2023/12/01 02:18:45;;;;;;;15.53;13.57;;;;;;;-3.84;100.00;101413.13;5066840;28;20429;-69
2023/12/01 02:21:11;;;;;;;15.67;14.00;;;;;;;-2.78;100.00;101598.22;5045032;28;20335;-69
2023/12/01 02:23:36;;;;;;;15.60;13.70;;;;;;;-2.80;100.00;101598.31;5038249;28;20179;-70
2023/12/01 02:26:02;;;;;;;15.80;13.50;;;;;;;-2.75;100.00;101590.16;5064841;28;20217;-70
2023/12/01 02:28:27;;;;;;;15.10;13.23;;;;;;;-2.99;100.00;101571.50;5066586;28;20191;-70
2023/12/01 02:30:54;;;;;;;15.27;12.90;;;;;;;-2.85;100.00;101589.88;5066476;28;20218;-70
2023/12/01 02:33:20;;;;;;;15.50;13.90;;;;;;;-2.84;100.00;101593.34;5062965;28;20305;-70
2023/12/01 02:35:51;;;;;;;16.37;14.67;;;;;;;-2.87;100.00;101588.28;5042336;28;20456;-70
2023/12/01 02:38:17;;;;;;;16.37;14.30;;;;;;;-2.90;100.00;101593.72;5064762;28;20519;-70
2023/12/01 02:40:44;;;;;;;16.03;14.10;;;;;;;-3.55;100.00;101479.53;5065103;28;20472;-69
2023/12/01 02:43:13;;;;;;;16.00;14.27;;;;;;;-3.20;100.00;101553.50;5063619;28;20919;-70
2023/12/01 02:45:39;;;;;;;15.97;14.13;;;;;;;-2.82;100.00;101604.59;5044759;28;20441;-70
2023/12/01 02:48:06;;;;;;;15.63;13.80;;;;;;;-2.94;100.00;101610.59;5065687;28;20472;-69
2023/12/01 02:50:31;;;;;;;14.63;13.13;;;;;;;-2.97;100.00;101607.22;5042912;28;20207;-70
2023/12/01 02:52:58;;;;;;;14.63;12.67;;;;;;;-2.95;100.00;101607.13;5066521;28;20501;-70
2023/12/01 02:55:23;;;;;;;14.93;13.37;;;;;;;-3.26;100.00;101563.53;5054761;28;21011;-70
2023/12/01 02:57:49;;;;;;;15.87;14.00;;;;;;;-3.14;100.00;101588.19;5065378;28;20457;-70
2023/12/01 03:00:15;;;;;;;15.40;13.80;;;;;;;-3.01;100.00;101599.59;5045251;28;20562;-70
2023/12/01 03:02:44;;;;;;;14.03;12.53;;;;;;;-2.94;100.00;101593.06;5068005;28;20213;-70
2023/12/01 03:05:11;;;;;;;15.60;14.00;;;;;;;-2.94;100.00;101586.97;5067297;28;20441;-70
2023/12/01 03:07:37;;;;;;;15.70;14.10;;;;;;;-3.02;100.00;101593.53;5065474;28;20968;-70
2023/12/01 03:10:04;;;;;;;15.93;14.27;;;;;;;-3.57;100.00;101556.63;5066220;28;20483;-70
2023/12/01 03:12:29;;;;;;;15.57;13.97;;;;;;;-3.42;100.00;101580.16;5064469;28;20444;-70
2023/12/01 03:14:55;;;;;;;16.17;14.47;;;;;;;-3.71;100.00;101529.41;5047925;28;20430;-70
2023/12/01 03:17:23;;;;;;;15.90;14.20;;;;;;;-3.40;100.00;101559.09;5063797;28;20223;-70
2023/12/01 03:19:49;;;;;;;14.87;13.37;;;;;;;-3.19;100.00;101594.53;5040593;28;20186;-70
2023/12/01 03:22:15;;;;;;;16.50;14.80;;;;;;;-3.72;100.00;101532.97;5062984;28;20449;-70
2023/12/01 03:24:42;;;;;;;17.30;14.37;;;;;;;-3.27;100.00;101590.66;5064435;28;20528;-70
2023/12/01 03:27:07;;;;;;;16.77;14.97;;;;;;;-3.44;100.00;101563.69;5063545;28;20584;-69
2023/12/01 03:29:34;;;;;;;17.47;15.67;;;;;;;-3.61;100.00;101516.63;5046959;28;20479;-70
2023/12/01 03:32:00;;;;;;;17.73;14.77;;;;;;;-3.48;100.00;101530.69;5046669;28;20199;-70
2023/12/01 03:34:26;;;;;;;19.93;13.30;;;;;;;-3.28;100.00;101579.34;5040296;28;20807;-70
2023/12/01 03:36:51;;;;;;;19.87;13.40;;;;;;;-3.96;100.00;101461.03;5047212;28;20456;-69
2023/12/01 03:39:17;;;;;;;18.90;12.87;;;;;;;-3.86;100.00;101472.66;5065647;28;20195;-70
2023/12/01 03:41:47;;;;;;;22.23;14.87;;;;;;;-3.37;100.00;101532.66;5064611;28;20188;-70
2023/12/01 03:44:13;;;;;;;24.03;16.30;;;;;;;-3.55;100.00;101505.75;5040358;28;20183;-70
2023/12/01 03:46:38;;;;;;;19.37;13.70;;;;;;;-3.72;100.00;101493.66;5064658;28;20913;-70
2023/12/01 03:49:04;;;;;;;20.83;15.53;;;;;;;-3.52;100.00;101547.53;5046025;28;20214;-70
2023/12/01 03:51:30;;;;;;;19.53;15.50;;;;;;;-3.60;100.00;101522.69;5075583;28;20198;-70
2023/12/01 03:53:55;;;;;;;20.87;15.40;;;;;;;-3.39;100.00;101538.94;5075232;28;20189;-70
2023/12/01 03:56:21;;;;;;;19.50;14.07;;;;;;;-3.56;100.00;101518.94;5066675;28;20190;-70
2023/12/01 03:58:46;;;;;;;22.20;16.30;;;;;;;-3.27;100.00;101567.94;5050130;28;20209;-70
2023/12/01 04:01:12;;;;;;;19.90;15.60;;;;;;;-3.19;100.00;101568.28;5062378;28;20240;-70
2023/12/01 04:03:38;;;;;;;22.27;16.33;;;;;;;-3.64;100.00;101501.91;5068006;28;20201;-70
2023/12/01 04:06:03;;;;;;;22.77;17.33;;;;;;;-3.65;100.00;101544.78;5050306;28;20186;-70
2023/12/01 04:08:29;;;;;;;21.97;17.30;;;;;;;-3.35;100.00;101566.69;5069800;28;20287;-70
2023/12/01 04:10:55;;;;;;;24.07;17.93;;;;;;;-3.30;100.00;101569.88;5063682;28;20194;-70
2023/12/01 04:13:21;;;;;;;25.30;18.07;;;;;;;-3.77;100.00;101503.56;5043657;28;20179;-70
2023/12/01 04:15:47;;;;;;;21.37;16.90;;;;;;;-3.30;100.00;101577.72;5067395;28;20429;-70
2023/12/01 04:18:13;;;;;;;21.67;16.73;;;;;;;-3.54;100.00;101541.53;5050486;28;20453;-70
2023/12/01 04:20:38;;;;;;;22.50;18.30;;;;;;;-3.65;100.00;101515.94;5064203;28;20175;-70
2023/12/01 04:23:09;;;;;;;21.90;17.00;;;;;;;-3.38;100.00;101578.22;5069909;28;20882;-70
2023/12/01 04:25:36;;;;;;;20.87;16.87;;;;;;;-3.47;100.00;101542.00;5063528;28;20524;-70
2023/12/01 04:28:02;;;;;;;24.50;18.00;;;;;;;-4.21;100.00;101438.03;5049135;28;21232;-70
2023/12/01 04:30:28;;;;;;;21.03;17.07;;;;;;;-3.82;100.00;101505.59;5066372;28;20975;-69
2023/12/01 04:32:55;;;;;;;22.17;17.80;;;;;;;-3.56;100.00;101577.47;5050551;28;20441;-70
2023/12/01 04:35:25;;;;;;;22.52;17.27;;;;;;;-3.49;100.00;101585.88;5049319;28;20183;-70
2023/12/01 04:37:51;;;;;;;23.02;17.35;;;;;;;-3.52;100.00;101576.38;5067552;28;20207;-70
2023/12/01 04:40:17;;;;;;;22.20;17.60;;;;;;;-3.58;100.00;101583.78;5067907;28;20230;-70
2023/12/01 04:42:51;;;;;;;23.27;18.47;;;;;;;-3.87;100.00;101508.50;5065295;28;20183;-70
2023/12/01 04:45:21;;;;;;;21.93;17.17;;;;;;;-3.75;100.00;101553.28;5047167;28;20616;-69
2023/12/01 04:47:52;;;;;;;21.80;17.37;;;;;;;-3.44;100.00;101589.06;5066484;28;20456;-70
2023/12/01 04:50:26;;;;;;;20.00;16.03;;;;;;;-3.58;100.00;101586.41;5049724;28;20958;-70
2023/12/01 04:52:54;;;;;;;24.67;18.33;;;;;;;-3.80;100.00;101571.88;5066420;28;20433;-69
2023/12/01 04:55:21;;;;;;;22.40;17.80;;;;;;;-4.03;100.00;101505.06;5068091;28;20448;-70
2023/12/01 04:57:47;;;;;;;21.15;16.60;;;;;;;-4.05;100.00;101511.31;5066678;28;20459;-69
2023/12/01 05:00:25;;;;;;;21.50;17.30;;;;;;;-3.70;100.00;101588.78;5067980;28;20195;-69
2023/12/01 05:03:01;;;;;;;22.40;18.03;;;;;;;-3.63;100.00;101584.03;5066879;28;20538;-70
2023/12/01 05:05:28;;;;;;;24.37;18.33;;;;;;;-3.89;100.00;101557.53;5065166;28;20472;-70
2023/12/01 05:07:58;;;;;;;21.63;17.23;;;;;;;-4.02;100.00;101551.31;5042884;28;20518;-69
2023/12/01 05:10:27;;;;;;;22.03;16.73;;;;;;;-4.11;100.00;101515.13;5068057;28;20472;-70
2023/12/01 05:13:00;;;;;;;21.63;16.50;;;;;;;-3.87;100.00;101560.94;5050108;28;21009;-69
2023/12/01 05:15:27;;;;;;;20.13;17.13;;;;;;;-4.14;100.00;101520.56;5061476;28;20445;-69
2023/12/01 05:18:00;;;;;;;19.17;16.90;;;;;;;-4.41;100.00;101475.81;5065711;28;20452;-69
2023/12/01 05:20:27;;;;;;;19.10;16.70;;;;;;;-3.65;100.00;101597.22;5063370;28;20427;-70
2023/12/01 05:23:07;;;;;;;19.45;16.55;;;;;;;-3.73;100.00;101620.44;5067154;28;20522;-70
2023/12/01 05:25:33;;;;;;;18.80;16.73;;;;;;;-3.57;100.00;101612.53;5058196;28;20183;-70
2023/12/01 05:28:00;;;;;;;20.47;17.67;;;;;;;-3.87;100.00;101615.13;5047959;28;20464;-70
2023/12/01 05:30:27;;;;;;;20.08;17.98;;;;;;;-4.21;100.00;101521.84;5062936;28;20205;-70
2023/12/01 05:32:54;;;;;;;20.60;17.07;;;;;;;-4.62;100.00;101473.50;5064702;28;20199;-69
2023/12/01 05:35:21;;;;;;;20.10;18.00;;;;;;;-4.68;100.00;101462.53;5044858;28;20826;-70
2023/12/01 05:37:49;;;;;;;20.05;17.95;;;;;;;-3.89;100.00;101578.50;5048032;28;20453;-69
2023/12/01 05:40:17;;;;;;;18.75;16.80;;;;;;;-3.93;100.00;101586.66;5063336;28;20445;-69
2023/12/01 05:42:44;;;;;;;18.20;16.30;;;;;;;-3.99;100.00;101605.31;5065083;28;20646;-69
2023/12/01 05:45:11;;;;;;;19.98;17.95;;;;;;;-3.93;100.00;101610.25;5064470;28;20201;-70
2023/12/01 05:47:43;;;;;;;18.87;16.90;;;;;;;-3.95;100.00;101615.56;5049923;28;25159;-69
2023/12/01 05:50:17;;;;;;;20.10;18.00;;;;;;;-4.37;100.00;101558.53;5065006;28;20453;-70
2023/12/01 05:52:45;;;;;;;19.02;17.08;;;;;;;-3.91;100.00;101613.59;5067295;28;20448;-70
2023/12/01 05:55:19;;;;;;;20.60;18.37;;;;;;;-3.70;100.00;101635.16;5062927;28;20191;-70
2023/12/01 05:57:46;;;;;;;19.90;17.63;;;;;;;-3.99;100.00;101636.75;5061666;28;20458;-70
2023/12/01 06:00:15;;;;;;;20.67;18.57;;;;;;;-4.25;100.00;101602.41;5064138;28;20429;-69
2023/12/01 06:02:46;;;;;;;19.90;17.90;;;;;;;-4.73;100.00;101506.41;5065473;28;20429;-69
2023/12/01 06:05:17;;;;;;;19.60;17.50;;;;;;;-3.77;100.00;101626.78;5066647;28;20432;-70
2023/12/01 06:07:49;;;;;;;20.20;18.10;;;;;;;-4.17;100.00;101600.16;5043479;28;20276;-69
2023/12/01 06:10:16;;;;;;;21.02;18.83;;;;;;;-4.31;100.00;101558.16;5063419;28;20472;-70
2023/12/01 06:12:42;;;;;;;20.40;18.27;;;;;;;-4.10;100.00;101605.94;5064503;28;20191;-70
2023/12/01 06:15:13;;;;;;;20.77;18.60;;;;;;;-3.61;100.00;101676.56;5060719;28;20560;-69
2023/12/01 06:17:43;;;;;;;20.90;18.80;;;;;;;-3.91;100.00;101652.91;5064855;28;20267;-70
2023/12/01 06:20:19;;;;;;;20.25;18.25;;;;;;;-3.68;100.00;101683.91;5068041;28;20421;-70
2023/12/01 06:22:51;;;;;;;20.73;18.53;;;;;;;-3.61;100.00;101691.47;5065256;28;20249;-70
2023/12/01 06:25:20;;;;;;;20.38;18.38;;;;;;;-3.67;100.00;101684.78;5058494;28;20433;-70
2023/12/01 06:27:46;;;;;;;20.85;18.70;;;;;;;-3.81;100.00;101654.09;5068780;28;20630;-70
2023/12/01 06:30:13;;;;;;;20.40;18.30;;;;;;;-4.59;100.00;101544.00;5048545;28;20206;-70
2023/12/01 06:32:43;;;;;;;19.83;17.83;;;;;;;-3.88;100.00;101647.50;5064894;28;20195;-70
2023/12/01 06:35:16;;;;;;;19.57;17.57;;;;;;;-3.80;100.00;101673.28;5045744;28;20977;-70
2023/12/01 06:37:43;;;;;;;21.67;19.47;;;;;;;-3.68;100.00;101701.44;5046915;28;20893;-70
2023/12/01 06:40:15;;;;;;;18.87;17.00;;;;;;;-3.59;100.00;101708.78;5050632;28;20523;-70
2023/12/01 06:42:41;;;;;;;19.85;17.85;;;;;;;-3.43;100.00;101707.00;5065504;28;20532;-70
2023/12/01 06:45:11;;;;;;;19.70;17.60;;;;;;;-3.51;100.00;101711.81;5067767;28;20429;-70
2023/12/01 06:47:38;;;;;;;19.50;17.50;;;;;;;-3.59;100.00;101719.28;5056484;28;20301;-70
2023/12/01 06:50:04;;;;;;;19.30;17.20;;;;;;;-3.47;100.00;101720.34;5069275;28;20560;-70
2023/12/01 06:52:30;;;;;;;19.70;17.80;;;;;;;-3.53;100.00;101721.59;5064533;28;20206;-70
2023/12/01 06:54:55;;;;;;;19.50;17.50;;;;;;;-3.56;100.00;101713.00;5040110;28;20577;-70
2023/12/01 06:57:21;;;;;;;20.07;18.07;;;;;;;-3.60;100.00;101725.47;5065581;28;20211;-70
2023/12/01 06:59:47;;;;;;;20.50;18.40;;;;;;;-3.73;100.00;101701.72;5044249;28;20186;-70
2023/12/01 07:02:17;;;;;;;20.40;18.33;;;;;;;-3.78;100.00;101710.75;5064863;28;20273;-70
2023/12/01 07:05:19;;;;;;;19.67;17.67;;;;;;;-4.29;100.00;101610.50;5046416;28;20461;-70
2023/12/01 07:07:45;;;;;;;19.00;17.10;;;;;;;-3.74;100.00;101707.03;5069425;28;20464;-70
2023/12/01 07:10:10;;;;;;;20.00;18.00;;;;;;;-3.97;100.00;101677.69;5051668;28;20201;-70
2023/12/01 07:12:36;;;;;;;21.23;19.13;;;;;;;-3.95;100.00;101701.19;5067114;28;20425;-70
2023/12/01 07:15:02;;;;;;;21.40;18.27;;;;;;;-4.27;100.00;101654.00;5067756;28;20205;-70
2023/12/01 07:17:29;;;;;;;21.67;19.50;;;;;;;-4.36;100.00;101650.13;5062432;28;20230;-70
2023/12/01 07:19:54;;;;;;;22.07;19.90;;;;;;;-4.39;100.00;101629.34;5066244;28;20270;-70
2023/12/01 07:22:22;;;;;;;20.40;18.40;;;;;;;-3.45;100.00;101747.34;5050953;28;20447;-70
2023/12/01 07:24:48;;;;;;;21.90;19.60;;;;;;;-3.71;100.00;101726.03;5070165;28;20429;-70
2023/12/01 07:27:14;;;;;;;22.23;19.93;;;;;;;-4.29;100.00;101628.81;5049729;28;20241;-70
2023/12/01 07:29:39;;;;;;;21.60;19.40;;;;;;;-3.26;100.00;101757.69;5068833;28;20954;-70
2023/12/01 07:32:05;;;;;;;22.20;19.90;;;;;;;-3.87;100.00;101665.78;5055733;28;20187;-70
2023/12/01 07:34:31;;;;;;;21.80;19.57;;;;;;;-4.61;100.00;101563.34;5066672;28;20183;-70
2023/12/01 07:36:56;;;;;;;23.47;21.07;;;;;;;-3.33;100.00;101766.81;5062772;28;20468;-70
2023/12/01 07:39:23;;;;;;;23.07;20.63;;;;;;;-3.31;100.00;101778.06;5064067;28;20214;-70
2023/12/01 07:41:51;;;;;;;22.25;19.83;;;;;;;-3.69;100.00;101739.09;5049954;28;20170;-70
2023/12/01 07:44:17;;;;;;;25.47;17.47;;;;;;;-3.12;100.00;101783.97;5066538;28;20221;-70
2023/12/01 07:46:43;;;;;;;23.77;18.83;;;;;;;-4.03;100.00;101662.28;5051853;28;20426;-70
2023/12/01 07:49:11;;;;;;;25.13;17.83;;;;;;;-3.16;100.00;101792.94;5052492;28;20203;-71
2023/12/01 07:51:37;;;;;;;21.33;15.27;;;;;;;-3.68;100.00;101717.16;5066457;28;20191;-71
2023/12/01 07:54:04;;;;;;;21.40;15.87;;;;;;;-3.67;100.00;101713.63;5069183;28;20862;-71
2023/12/01 07:56:29;;;;;;;22.60;16.40;;;;;;;-3.52;100.00;101731.13;5068047;28;21148;-71
2023/12/01 07:58:54;;;;;;;24.17;17.67;;;;;;;-3.77;100.00;101645.13;5046237;28;20433;-71
2023/12/01 08:01:20;;;;;;;23.50;16.70;;;;;;;-2.68;100.00;101806.00;5067636;28;20250;-71
2023/12/01 08:03:48;;;;;;;24.60;16.77;;;;;;;-3.51;100.00;101697.88;5049346;28;20207;-71
2023/12/01 08:06:14;;;;;;;25.70;17.97;;;;;;;-2.96;100.00;101790.03;5065771;28;20198;-71
2023/12/01 08:08:42;;;;;;;25.67;17.13;;;;;;;-3.37;100.00;101663.00;5062567;28;20461;-71
2023/12/01 08:11:08;;;;;;;25.30;17.70;;;;;;;-3.10;100.00;101747.13;5068434;28;20198;-71
2023/12/01 08:13:35;;;;;;;24.60;17.53;;;;;;;-2.96;100.00;101782.16;5066244;28;20437;-71
2023/12/01 08:16:00;;;;;;;25.93;17.50;;;;;;;-3.48;100.00;101734.41;5052461;28;20187;-71
2023/12/01 08:18:26;;;;;;;28.50;17.17;;;;;;;-3.08;100.00;101759.25;5069825;28;20475;-71
2023/12/01 08:20:52;;;;;;;26.27;20.80;;;;;;;-2.66;100.00;101804.09;5068577;28;20429;-71
2023/12/01 08:23:17;;;;;;;29.90;20.03;;;;;;;-3.23;100.00;101732.09;5067528;28;20229;-71
2023/12/01 08:25:43;;;;;;;28.17;19.00;;;;;;;-3.00;100.00;101782.44;5046881;28;20179;-71
2023/12/01 08:28:09;;;;;;;25.00;17.20;;;;;;;-3.83;100.00;101665.59;5045950;28;20207;-71
2023/12/01 08:30:35;;;;;;;24.07;16.90;;;;;;;-2.95;100.00;101804.03;5065568;28;20258;-71
2023/12/01 08:33:00;;;;;;;23.53;16.30;;;;;;;-3.32;100.00;101744.91;5064660;28;20838;-71
2023/12/01 08:35:26;;;;;;;24.43;17.10;;;;;;;-2.82;100.00;101819.91;5065280;28;20183;-71
2023/12/01 08:37:52;;;;;;;23.63;16.70;;;;;;;-3.26;100.00;101753.28;5047376;28;21794;-71
2023/12/01 08:40:17;;;;;;;23.40;16.87;;;;;;;-3.00;100.00;101788.53;5067434;28;20429;-71
2023/12/01 08:42:43;;;;;;;24.10;17.33;;;;;;;-3.06;100.00;101806.41;5067362;28;20606;-70
2023/12/01 08:45:09;;;;;;;27.20;19.17;;;;;;;-3.45;100.00;101745.56;5067268;28;20435;-70
2023/12/01 08:47:35;;;;;;;26.03;19.10;;;;;;;-3.05;100.00;101811.56;5068460;28;20222;-71
2023/12/01 08:50:00;;;;;;;25.87;19.87;;;;;;;-3.85;100.00;101673.53;5051963;28;20485;-71
2023/12/01 08:52:26;;;;;;;29.03;19.43;;;;;;;-3.23;100.00;101729.47;5046278;28;20227;-71
2023/12/01 08:54:51;;;;;;;25.60;18.83;;;;;;;-2.50;100.00;101842.50;5065668;28;20194;-71
2023/12/01 08:57:17;;;;;;;30.90;20.90;;;;;;;-3.09;100.00;101705.06;5067371;28;20202;-71
2023/12/01 08:59:43;;;;;;;26.10;18.80;;;;;;;-2.55;100.00;101855.06;5043979;28;20187;-71
2023/12/01 09:02:09;;;;;;;29.97;21.17;;;;;;;-2.68;100.00;101851.47;5067795;28;20724;-71
2023/12/01 09:04:35;;;;;;;24.70;18.13;;;;;;;-2.45;100.00;101855.41;5047798;28;20533;-71
2023/12/01 09:07:00;;;;;;;24.27;19.30;;;;;;;-2.35;100.00;101842.56;5066520;28;20449;-71
2023/12/01 09:09:26;;;;;;;26.03;20.27;;;;;;;-2.31;100.00;101858.06;5067819;28;20236;-71
2023/12/01 09:11:52;;;;;;;25.57;20.57;;;;;;;-2.33;100.00;101852.03;5064574;28;20191;-71
2023/12/01 09:14:17;;;;;;;25.17;18.00;;;;;;;-2.33;100.00;101838.91;5068549;28;20421;-71
2023/12/01 09:16:43;;;;;;;26.23;18.57;;;;;;;-1.99;100.00;101857.94;5048261;28;20199;-71
2023/12/01 09:19:08;;;;;;;24.23;19.57;;;;;;;-2.12;100.00;101860.44;5068282;28;20641;-71
2023/12/01 09:21:33;;;;;;;24.10;18.80;;;;;;;-2.13;100.00;101856.13;5065265;28;20225;-71
2023/12/01 09:23:59;;;;;;;27.00;20.30;;;;;;;-2.16;100.00;101858.94;5044941;28;20298;-70
2023/12/01 09:26:24;;;;;;;29.00;21.50;;;;;;;-2.97;100.00;101737.63;5068898;28;20198;-71
2023/12/01 09:28:51;;;;;;;24.37;19.77;;;;;;;-2.50;100.00;101802.28;5064530;28;20171;-71
2023/12/01 09:31:16;;;;;;;25.17;20.07;;;;;;;-2.27;100.00;101800.91;5068235;28;20187;-71
2023/12/01 09:33:42;;;;;;;28.67;20.07;;;;;;;-1.91;100.00;101886.38;5063647;28;20522;-71
2023/12/01 09:36:08;;;;;;;27.30;20.53;;;;;;;-2.13;100.00;101860.53;5063781;28;20660;-71
2023/12/01 09:38:35;;;;;;;25.60;20.77;;;;;;;-2.19;100.00;101843.34;5064210;28;20465;-71
2023/12/01 09:41:01;;;;;;;23.67;19.53;;;;;;;-2.14;100.00;101866.72;5066729;28;20801;-71
2023/12/01 09:43:30;;;;;;;24.87;19.83;;;;;;;-2.16;100.00;101840.53;5047891;28;20425;-71
2023/12/01 09:45:55;;;;;;;24.37;19.70;;;;;;;-2.22;100.00;101838.28;5063335;28;20425;-71
2023/12/01 09:48:21;;;;;;;24.17;18.60;;;;;;;-2.00;100.00;101876.41;5068152;28;20514;-71
2023/12/01 09:50:47;;;;;;;25.60;19.60;;;;;;;-2.43;100.00;101808.00;5067017;28;20571;-71
2023/12/01 09:53:12;;;;;;;24.40;19.87;;;;;;;-1.86;100.00;101890.41;5064369;28;20190;-71
2023/12/01 09:55:38;;;;;;;26.67;20.93;;;;;;;-2.47;100.00;101788.09;5068258;28;20614;-71
2023/12/01 09:58:20;;;;;;;24.13;20.53;;;;;;;-2.20;100.00;101804.84;5066553;28;20256;-70
2023/12/01 10:00:47;;;;;;;25.27;20.20;;;;;;;-2.46;100.00;101768.78;5044848;28;20430;-71
2023/12/01 10:03:12;;;;;;;24.77;17.67;;;;;;;-2.55;100.00;101750.00;5045047;28;20214;-71
2023/12/01 10:05:38;;;;;;;26.37;17.60;;;;;;;-1.55;100.00;101900.88;5067108;28;20516;-71
2023/12/01 10:08:06;;;;;;;26.37;18.33;;;;;;;-1.87;100.00;101845.81;5063794;28;20203;-71
2023/12/01 10:10:31;;;;;;;24.90;17.80;;;;;;;-1.46;100.00;101890.63;5063999;28;20202;-71
2023/12/01 10:13:06;;;;;;;25.67;17.50;;;;;;;-1.36;100.00;101901.41;5066933;28;20514;-72
2023/12/01 10:15:33;;;;;;;24.50;17.00;;;;;;;-1.50;100.00;101891.75;5048121;28;20182;-71
2023/12/01 10:18:16;;;;;;;25.47;17.13;;;;;;;-0.92;100.00;101889.88;5087509;28;20448;-71
2023/12/01 10:20:57;;;;;;;24.83;17.77;;;;;;;-1.75;100.00;101802.13;5056278;28;20473;-71
2023/12/01 10:23:23;;;;;;;25.13;17.17;;;;;;;-1.20;100.00;101888.16;5065919;28;21203;-71
2023/12/01 10:25:50;;;;;;;25.80;17.23;;;;;;;-1.25;100.00;101864.72;5065359;28;20429;-71
2023/12/01 10:28:16;;;;;;;25.33;17.20;;;;;;;-1.00;100.00;101894.78;5066509;28;20203;-71
2023/12/01 10:30:58;;;;;;;25.20;17.87;;;;;;;-1.06;100.00;101885.47;5064127;28;20552;-70
2023/12/01 10:33:26;;;;;;;26.00;17.67;;;;;;;-1.93;100.00;101741.84;5064342;28;20516;-71
2023/12/01 10:36:04;;;;;;;25.67;16.80;;;;;;;-1.09;100.00;101883.03;5064960;28;20468;-71
2023/12/01 10:38:31;;;;;;;24.43;16.80;;;;;;;-1.26;100.00;101883.28;5065703;28;20452;-71
2023/12/01 10:40:58;;;;;;;28.27;19.30;;;;;;;-2.20;100.00;101814.50;5062836;28;20803;-70
2023/12/01 10:43:24;;;;;;;25.47;18.80;;;;;;;-2.03;100.00;101763.53;5065633;28;20782;-71
2023/12/01 10:45:50;;;;;;;27.07;18.70;;;;;;;-0.99;100.00;101878.88;5043465;28;20437;-71
2023/12/01 10:48:20;;;;;;;25.10;18.43;;;;;;;-1.14;100.00;101869.31;5064946;28;21058;-71
2023/12/01 10:50:50;;;;;;;23.40;17.23;;;;;;;-1.13;100.00;101886.81;5060745;28;20203;-73
2023/12/01 10:53:16;;;;;;;26.10;17.27;;;;;;;-0.85;100.00;101890.31;5063401;28;20469;-71
2023/12/01 10:55:48;;;;;;;25.97;16.67;;;;;;;-1.35;100.00;101834.69;5062878;28;20433;-71
2023/12/01 10:58:22;;;;;;;24.97;16.47;;;;;;;-0.79;100.00;101900.47;5068072;28;20457;-71
2023/12/01 11:00:53;;;;;;;23.03;15.03;;;;;;;-1.15;100.00;101859.75;5070950;28;20425;-71